TimeMST,TemperatureF,Dew PointF,Humidity,Sea Level PressureIn,VisibilityMPH,Wind Direction,Wind SpeedMPH,Gust SpeedMPH,PrecipitationIn,Events,Conditions,WindDirDegrees,DateUTC
12:15 AM,14.0,8.6,79,29.96,10.0,SW,10.4,-,N/A,,Overcast,230,2013-02-01 07:15:00
12:35 AM,15.8,10.4,79,29.96,8.0,SW,9.2,-,N/A,,Overcast,230,2013-02-01 07:35:00
12:55 AM,15.8,10.4,79,29.94,6.0,SW,12.7,-,N/A,,Overcast,220,2013-02-01 07:55:00
1:15 AM,15.8,10.4,79,29.93,5.0,SW,15.0,-,N/A,,Haze,230,2013-02-01 08:15:00
1:35 AM,17.6,12.2,79,29.92,10.0,SW,13.8,-,N/A,,Overcast,230,2013-02-01 08:35:00
1:55 AM,17.6,12.2,79,29.92,9.0,SW,10.4,-,N/A,,Overcast,230,2013-02-01 08:55:00
2:15 AM,17.6,14.0,86,29.91,10.0,SW,12.7,-,N/A,,Overcast,230,2013-02-01 09:15:00
2:35 AM,17.6,14.0,86,29.89,10.0,SW,15.0,-,N/A,,Overcast,230,2013-02-01 09:35:00
2:55 AM,19.4,14.0,80,29.88,10.0,SW,15.0,-,N/A,,Overcast,230,2013-02-01 09:55:00
3:15 AM,19.4,14.0,80,29.88,10.0,SW,12.7,-,N/A,,Overcast,220,2013-02-01 10:15:00
3:35 AM,19.4,14.0,80,29.87,10.0,SW,9.2,-,N/A,,Overcast,220,2013-02-01 10:35:00
4:15 AM,19.4,14.0,80,29.87,10.0,Calm,Calm,-,N/A,,Overcast,0,2013-02-01 11:15:00
4:35 AM,19.4,15.8,86,29.86,10.0,WSW,12.7,-,N/A,,Overcast,240,2013-02-01 11:35:00
4:55 AM,21.2,15.8,80,29.85,10.0,SW,11.5,-,N/A,,Overcast,230,2013-02-01 11:55:00
5:15 AM,23.0,17.6,80,29.84,10.0,WSW,12.7,-,N/A,,Overcast,240,2013-02-01 12:15:00
5:35 AM,23.0,17.6,80,29.83,10.0,WSW,18.4,-,N/A,,Overcast,250,2013-02-01 12:35:00
6:15 AM,21.2,17.6,86,29.84,10.0,West,18.4,-,N/A,,Overcast,260,2013-02-01 13:15:00
6:35 AM,19.4,15.8,86,29.85,10.0,West,17.3,20.7,N/A,,Mostly Cloudy,270,2013-02-01 13:35:00
6:55 AM,19.4,15.8,86,29.85,10.0,West,15.0,-,N/A,,Partly Cloudy,270,2013-02-01 13:55:00
7:15 AM,17.6,15.8,93,29.85,10.0,West,18.4,-,N/A,,Clear,270,2013-02-01 14:15:00
7:35 AM,17.6,15.8,93,29.85,10.0,West,17.3,-,N/A,,Clear,270,2013-02-01 14:35:00
8:15 AM,17.6,14.0,86,29.87,10.0,West,13.8,-,N/A,,Partly Cloudy,280,2013-02-01 15:15:00
8:35 AM,19.4,15.8,86,29.88,10.0,West,15.0,-,N/A,,Clear,280,2013-02-01 15:35:00
9:15 AM,23.0,17.6,80,29.88,10.0,West,16.1,-,N/A,,Overcast,270,2013-02-01 16:15:00
9:35 AM,23.0,19.4,86,29.89,10.0,WNW,17.3,23.0,N/A,,Overcast,290,2013-02-01 16:35:00
9:55 AM,24.8,21.2,86,29.90,10.0,WNW,13.8,-,N/A,,Overcast,300,2013-02-01 16:55:00
10:15 AM,24.8,23.0,93,29.91,10.0,WNW,15.0,18.4,N/A,,Overcast,300,2013-02-01 17:15:00
10:35 AM,24.8,23.0,93,29.92,10.0,WNW,20.7,25.3,N/A,,Overcast,300,2013-02-01 17:35:00
10:55 AM,24.8,23.0,93,29.93,9.0,WNW,18.4,-,N/A,,Overcast,290,2013-02-01 17:55:00
11:15 AM,24.8,23.0,93,29.93,10.0,WNW,12.7,-,N/A,,Overcast,300,2013-02-01 18:15:00
11:35 AM,26.6,23.0,86,29.92,10.0,West,10.4,-,N/A,,Overcast,280,2013-02-01 18:35:00
11:55 AM,26.6,23.0,86,29.92,10.0,West,15.0,-,N/A,,Overcast,280,2013-02-01 18:55:00
12:15 PM,26.6,23.0,86,29.92,10.0,West,15.0,-,N/A,,Overcast,280,2013-02-01 19:15:00
12:35 PM,26.6,23.0,86,29.92,10.0,WNW,13.8,-,N/A,,Overcast,300,2013-02-01 19:35:00
12:55 PM,26.6,24.8,93,29.92,5.0,WNW,16.1,-,N/A,Rain,Freezing Rain,300,2013-02-01 19:55:00
1:15 PM,28.4,24.8,86,29.92,10.0,West,15.0,19.6,N/A,,Overcast,280,2013-02-01 20:15:00
1:35 PM,28.4,26.6,93,29.92,10.0,WNW,18.4,-,N/A,,Overcast,300,2013-02-01 20:35:00
1:55 PM,30.2,28.4,93,29.93,10.0,WNW,16.1,24.2,N/A,,Overcast,300,2013-02-01 20:55:00
2:15 PM,30.2,28.4,93,29.93,10.0,WNW,19.6,24.2,N/A,,Overcast,300,2013-02-01 21:15:00
2:35 PM,32.0,28.4,87,29.93,10.0,WNW,19.6,27.6,N/A,,Overcast,300,2013-02-01 21:35:00
2:55 PM,32.0,28.4,87,29.94,10.0,WNW,17.3,21.9,N/A,,Overcast,300,2013-02-01 21:55:00
3:15 PM,32.0,28.4,87,29.94,7.0,NW,13.8,-,N/A,Snow,Light Snow,310,2013-02-01 22:15:00
3:35 PM,30.2,28.4,93,29.95,3.0,WNW,15.0,-,0.05,Snow,Light Snow,300,2013-02-01 22:35:00
3:55 PM,30.2,28.4,93,29.96,4.0,WNW,15.0,23.0,0.08,Snow,Light Snow,300,2013-02-01 22:55:00
4:15 PM,30.2,28.4,93,29.96,6.0,WNW,13.8,-,N/A,Snow,Light Snow,300,2013-02-01 23:15:00
4:35 PM,30.2,28.4,93,29.96,1.8,WNW,12.7,-,0.05,Snow,Light Snow,300,2013-02-01 23:35:00
4:55 PM,28.4,28.4,100,29.96,1.8,WNW,16.1,-,0.16,Snow,Light Snow,300,2013-02-01 23:55:00
5:15 PM,28.4,28.4,100,29.96,1.8,WNW,17.3,-,0.12,Snow,Light Snow,300,2013-02-02 00:15:00
5:35 PM,28.4,28.4,100,29.96,2.5,NW,17.3,-,0.19,Snow,Light Snow,310,2013-02-02 00:35:00
5:55 PM,28.4,28.4,100,29.97,2.0,NW,13.8,-,0.27,Snow,Light Snow,310,2013-02-02 00:55:00
6:15 PM,28.4,28.4,100,29.97,2.0,NW,12.7,-,0.05,Snow,Light Snow,320,2013-02-02 01:15:00
6:35 PM,28.4,28.4,100,29.98,1.8,NW,11.5,-,0.12,Snow,Light Snow,320,2013-02-02 01:35:00
6:55 PM,28.4,28.4,100,29.98,2.0,NW,11.5,-,0.26,Snow,Light Snow,320,2013-02-02 01:55:00
7:15 PM,28.4,28.4,100,29.99,2.5,NW,13.8,-,0.04,Snow,Light Snow,320,2013-02-02 02:15:00
7:35 PM,28.4,28.4,100,29.99,2.0,NW,12.7,-,0.17,Snow,Light Snow,310,2013-02-02 02:35:00
7:55 PM,28.4,28.4,100,30.00,5.0,NW,12.7,-,0.21,Snow,Light Snow,310,2013-02-02 02:55:00
8:15 PM,28.4,26.6,93,30.00,5.0,NW,13.8,-,N/A,Rain,Freezing Rain,320,2013-02-02 03:15:00
8:35 PM,28.4,26.6,93,30.01,8.0,NNW,11.5,-,N/A,Rain,Freezing Rain,330,2013-02-02 03:35:00
8:55 PM,28.4,26.6,93,30.01,3.0,NW,10.4,-,0.02,Snow,Light Snow,320,2013-02-02 03:55:00
9:15 PM,28.4,26.6,93,30.01,4.0,NW,11.5,-,0.03,Snow,Light Snow,310,2013-02-02 04:15:00
9:35 PM,28.4,28.4,100,30.02,3.0,NW,10.4,-,0.09,Snow,Light Snow,310,2013-02-02 04:35:00
9:55 PM,28.4,28.4,100,30.02,5.0,North,-9999.0,-,0.11,Snow,Light Snow,0,2013-02-02 04:55:00
10:15 PM,28.4,28.4,100,30.02,3.0,WNW,10.4,-,0.06,Snow,Light Snow,290,2013-02-02 05:15:00
10:35 PM,28.4,28.4,100,30.02,1.8,West,10.4,-,0.16,Snow,Light Snow,280,2013-02-02 05:35:00
10:55 PM,28.4,28.4,100,30.02,1.2,West,8.1,-,0.42,Snow,Light Snow,280,2013-02-02 05:55:00
11:15 PM,28.4,28.4,100,30.02,0.8,West,8.1,-,0.24,Snow,Light Snow,270,2013-02-02 06:15:00
11:35 PM,28.4,28.4,100,30.02,1.0,West,6.9,-,0.69,Snow,Light Snow,280,2013-02-02 06:35:00
11:55 PM,30.2,30.2,100,30.02,1.0,West,10.4,-,0.99,Snow,Light Snow,270,2013-02-02 06:55:00